香港 の空港の天気 - METARとTAF

香港国際空港 ( VHHH / HKG ) - 香港 赤リョウ角
飛行場実況気象(Metar)
観測時間10/22 19:00 HKT (10/22 11:00 UTC)
風向・風速北北東 4m/s
視程10km以上
天気現象
少しの雲 雲底高度 1370m
気温25℃
湿度50%
気圧1010hPa
METARVHHH 221100Z 02008KT 330V050 9999 FEW045 25/14 Q1010 NOSIG
過去の天気等 Google飛行場航空写真 Wunderground天気予報

過去48時間のMETAR

飛行場予報(TAF)
発表時間: 10/22 13:00 HKT (10/22 05:00 UTC)
予報対象時間: 22日14時 HKT ~ 23日20時 HKT
風向・風速北 8m/s
視程10km以上
少しの雲 雲底高度 910m
全天の4割程度の雲 雲底高度 1220m
TAF VHHH 220500Z 2206/2312 01015KT 9999 FEW030 SCT040 TX27/2206Z TX26/2306Z TN22/2222Z